Latest Weather Observations for Point Fawcett

IDD60801

Issued at 11:05 pm CST Thursday 30 October 2014 (issued every 30 minutes, with the page automatically refreshed every 10 minutes)

About weather observations | Map of weather stations | Latest weather observations for NT | Other Formats
Station Details ID: 200731 Name: POINT FAWCETT Lat: -11.76 Lon: 130.03 Height: 6.5 m
Data from the previous 72 hours. | See also: Recent months at Point Fawcett
Date/Time
CST
Temp
°C
App
Temp
°C
Dew
Point
Rel
Hum
%
Delta-T
°C
Wind Press
QNH
hPa
Press
MSL
hPa
Rain
since 9 am
mm
Dir
 
Spd
km/h
Gust
km/h
Spd
kts
Gust
kts
30/11:00pm 27.0 29.0 21.5 72 3.7 N 13 17 7 9 1009.5 - -
30/10:00pm 27.2 29.2 22.2 74 3.4 NNW 15 20 8 11 1009.4 - -
30/09:30pm 27.2 29.6 22.2 74 3.4 N 13 19 7 10 1009.0 - -
30/09:00pm 27.2 29.0 21.9 73 3.6 N 15 20 8 11 1009.0 1008.9 -
30/08:30pm 27.2 29.0 21.9 73 3.6 N 15 19 8 10 1008.9 - -
30/08:00pm 27.2 28.9 21.7 72 3.7 N 15 19 8 10 1008.7 - -
30/07:30pm 27.5 30.2 22.2 73 3.6 N 11 17 6 9 1008.7 - -
30/07:00pm 27.8 30.3 21.8 70 4.0 N 11 15 6 8 1008.7 - -
30/06:30pm 28.4 30.9 21.7 67 4.5 NNW 11 15 6 8 1008.5 - -
30/06:00pm 29.6 32.3 22.1 64 5.1 NNW 11 17 6 9 1008.4 1008.3 -
30/05:30pm 29.9 32.7 22.3 63 5.2 NNW 11 17 6 9 1008.1 - -
30/05:00pm 30.3 32.8 22.5 63 5.3 NNW 13 17 7 9 1008.2 - -
30/04:30pm 30.6 33.0 22.2 61 5.7 NW 13 17 7 9 1008.1 - -
30/04:00pm 31.7 33.8 22.4 58 6.3 NW 15 19 8 10 1008.4 - -
30/03:30pm 31.9 34.3 22.3 56 6.5 NW 13 17 7 9 1008.5 - -
30/03:00pm 31.7 34.0 22.7 59 6.2 WNW 15 19 8 10 1008.7 1008.6 -
30/02:30pm 32.1 34.3 21.9 54 6.9 WNW 13 17 7 9 1009.0 - -
30/02:00pm 31.9 33.8 22.0 55 6.7 NW 15 19 8 10 1009.1 - -
30/01:30pm 32.6 34.5 22.7 56 6.8 NNW 17 20 9 11 1009.6 - -
30/01:00pm 32.3 34.3 23.0 58 6.4 NW 17 22 9 12 1009.9 - -
30/12:30pm 32.0 33.3 22.4 57 6.6 NNW 19 24 10 13 1010.5 - -
30/12:00pm 32.2 34.4 23.2 59 6.2 NNW 17 20 9 11 1010.6 1010.5 -
30/11:30am 32.0 34.3 22.7 58 6.4 NNW 15 20 8 11 1010.8 - -
30/11:00am 32.6 35.3 23.5 58 6.3 N 15 20 8 11 1011.2 - -
30/10:30am 31.3 34.5 23.7 64 5.3 N 13 19 7 10 1011.5 - -
30/10:00am 30.8 33.9 23.5 65 5.0 N 13 19 7 10 1011.5 - -
30/09:30am 30.9 34.2 23.8 66 4.9 N 13 19 7 10 1011.7 - -
30/09:00am 30.3 33.8 23.5 67 4.7 NNE 11 17 6 9 1011.7 1011.6 -
30/08:30am 29.7 33.6 23.6 69 4.2 NNE 9 15 5 8 1011.6 - -
30/08:00am 27.7 32.2 23.9 80 2.6 NE 7 11 4 6 1011.3 - -
30/07:30am 25.3 29.9 24.1 93 0.8 ENE 7 9 4 5 1010.9 - -
30/07:00am 22.2 24.8 21.2 94 0.7 E 9 9 5 5 1010.6 - -
30/06:30am 20.4 22.0 19.1 92 0.8 E 9 9 5 5 1010.2 - -
30/06:00am 20.3 22.2 19.0 92 0.8 E 7 7 4 4 1009.9 1009.8 -
30/05:30am 20.7 22.7 19.2 91 0.9 E 7 7 4 4 1009.7 - -
30/05:00am 21.0 23.2 19.5 91 1.0 E 7 9 4 5 1009.5 - -
30/04:30am 21.6 24.0 20.1 91 1.0 E 7 9 4 5 1009.5 - -
30/04:00am 22.1 24.8 20.6 91 1.0 E 7 9 4 5 1009.6 - -
30/03:30am 22.6 25.2 21.2 92 0.9 ESE 9 11 5 6 1009.6 - -
30/03:00am 22.0 24.5 20.3 90 1.1 ESE 7 9 4 5 1009.7 1009.6 -
30/02:30am 21.9 24.3 20.0 89 1.2 ESE 7 11 4 6 1009.7 - -
30/02:00am 22.2 24.6 20.1 88 1.4 ESE 7 7 4 4 1009.9 - -
30/01:30am 22.5 24.9 20.0 86 1.6 E 7 7 4 4 1010.3 - -
30/01:00am 23.1 27.0 20.4 85 1.7 CALM 0 0 0 0 1010.3 - -
30/12:30am 23.8 27.8 20.5 82 2.1 CALM 0 0 0 0 1010.6 - -
30/12:00am 25.2 27.8 20.5 75 3.1 WNW 7 11 4 6 1010.8 1010.7 -
 
Date/Time
CST
Temp
°C
App
Temp
°C
Dew
Point
Rel
Hum
%
Delta-T
°C
Wind Press
QNH
hPa
Press
MSL
hPa
Rain
since 9 am
mm
Dir
 
Spd
km/h
Gust
km/h
Spd
kts
Gust
kts
29/11:30pm 26.9 30.1 22.3 76 3.1 NW 9 13 5 7 1010.9 - -
29/11:00pm 27.1 30.3 22.3 75 3.2 NW 9 13 5 7 1011.1 - -
29/10:30pm 27.2 29.9 22.2 74 3.4 NNW 11 15 6 8 1011.0 - -
29/10:00pm 27.4 30.0 22.6 75 3.2 NNW 13 19 7 10 1010.8 - -
29/09:30pm 27.6 29.7 22.5 74 3.4 NNW 15 20 8 11 1010.8 - -
29/09:00pm 27.7 29.8 22.4 73 3.6 NNW 15 20 8 11 1010.8 1010.7 -
29/08:30pm 27.7 29.9 22.6 74 3.5 NNW 15 20 8 11 1010.6 - -
29/08:00pm 27.8 30.1 22.7 74 3.5 NNW 15 20 8 11 1010.3 - -
29/07:30pm 27.9 29.7 22.6 73 3.6 N 17 20 9 11 1010.0 - -
29/07:00pm 28.3 30.4 22.5 71 3.9 NNW 15 20 8 11 1009.7 - -
29/06:30pm 28.7 29.5 20.7 62 5.3 NNW 17 22 9 12 1009.4 - -
29/06:00pm 29.8 31.3 21.2 60 5.8 NNW 15 19 8 10 1009.3 1009.2 -
29/05:30pm 30.5 32.5 21.6 59 6.0 NNW 13 17 7 9 1009.3 - -
29/05:00pm 30.9 32.3 21.9 58 6.1 NW 17 20 9 11 1009.2 - -
29/04:30pm 31.0 32.8 21.2 56 6.6 W 13 17 7 9 1009.0 - -
29/04:00pm 31.8 33.8 21.6 54 6.9 WSW 13 20 7 11 1009.1 - -
29/03:30pm 31.7 32.6 21.5 54 6.9 WSW 19 24 10 13 1009.1 - -
29/03:00pm 33.0 34.6 21.5 50 7.8 SSW 15 24 8 13 1009.4 1009.3 -
29/02:30pm 32.8 33.9 19.6 45 8.7 S 13 20 7 11 1009.5 - -
29/02:00pm 33.4 35.2 21.9 51 7.8 SSW 15 24 8 13 1009.8 - -
29/01:30pm 33.5 35.6 21.0 48 8.4 S 11 20 6 11 1010.4 - -
29/01:00pm 32.5 33.9 20.4 49 8.1 S 13 24 7 13 1010.9 - -
29/12:30pm 31.1 33.4 20.7 54 6.9 NNW 9 15 5 8 1011.7 - -
29/12:00pm 32.2 33.8 20.8 51 7.6 NW 13 19 7 10 1012.3 1012.2 -
29/11:30am 31.9 33.4 20.5 51 7.6 NW 13 17 7 9 1012.7 - -
29/11:00am 30.7 32.7 20.0 52 7.1 NW 9 13 5 7 1013.0 - -
29/10:30am 31.4 32.6 19.1 48 8.0 N 11 15 6 8 1012.8 - -
29/10:00am 31.6 32.7 18.9 47 8.3 N 11 15 6 8 1012.6 - -
29/09:30am 31.0 31.3 17.0 43 8.9 E 11 17 6 9 1013.0 - -
29/09:00am 30.2 32.2 19.2 51 7.2 ENE 7 11 4 6 1013.0 1012.9 -
29/08:30am 29.2 31.9 21.4 63 5.2 ENE 9 11 5 6 1012.6 - -
29/08:00am 26.6 30.8 23.5 83 2.1 E 7 11 4 6 1012.4 - -
29/07:30am 24.8 29.2 23.8 94 0.7 ESE 7 11 4 6 1012.0 - -
29/07:00am 23.4 26.7 22.6 95 0.5 E 9 11 5 6 1011.8 - -
29/06:30am 21.9 24.3 20.9 94 0.7 E 9 11 5 6 1011.5 - -
29/06:00am 21.6 23.9 20.6 94 0.6 E 9 9 5 5 1011.3 1011.2 -
29/05:30am 22.4 25.1 21.4 94 0.7 E 9 11 5 6 1010.9 - -
29/05:00am 22.2 24.7 21.0 93 0.8 E 9 11 5 6 1010.8 - -
29/04:30am 21.7 23.9 20.5 93 0.8 E 9 9 5 5 1010.5 - -
29/04:00am 21.7 24.2 20.3 92 0.9 E 7 11 4 6 1010.4 - -
29/03:30am 21.7 24.2 20.2 91 1.0 ESE 7 9 4 5 1010.3 - -
29/03:00am 21.9 24.5 20.4 91 1.0 ESE 7 9 4 5 1010.4 1010.3 -
29/02:30am 22.2 24.8 20.5 90 1.1 ESE 7 9 4 5 1010.7 - -
29/02:00am 22.5 25.2 20.6 89 1.2 ESE 7 9 4 5 1010.9 - -
29/01:30am 22.7 25.3 20.4 87 1.5 E 7 7 4 4 1011.0 - -
29/01:00am 23.3 26.2 20.6 85 1.8 ESE 6 7 3 4 1011.0 - -
29/12:30am 24.2 28.3 20.7 81 2.3 CALM 0 0 0 0 1010.9 - -
29/12:00am 25.8 29.4 21.2 76 3.0 NNW 4 9 2 5 1010.9 1010.8 -
 
Date/Time
CST
Temp
°C
App
Temp
°C
Dew
Point
Rel
Hum
%
Delta-T
°C
Wind Press
QNH
hPa
Press
MSL
hPa
Rain
since 9 am
mm
Dir
 
Spd
km/h
Gust
km/h
Spd
kts
Gust
kts
28/11:30pm 27.3 30.4 22.9 77 3.0 WNW 11 13 6 7 1010.7 - -
28/11:00pm 27.5 30.6 22.9 76 3.1 NW 11 15 6 8 1010.8 - -
28/10:30pm 27.6 30.4 23.0 76 3.1 NW 13 15 7 8 1010.7 - -
28/10:00pm 27.6 30.3 22.8 75 3.3 NW 13 17 7 9 1010.4 - -
28/09:30pm 27.8 30.3 23.2 76 3.1 NNW 15 19 8 10 1010.3 - -
28/09:00pm 27.9 30.1 23.3 76 3.1 NNW 17 22 9 12 1010.1 1010.0 -
28/08:30pm 28.0 30.3 23.4 76 3.2 NNW 17 20 9 11 1009.9 - -
28/08:00pm 28.0 29.6 22.9 74 3.5 NNW 19 24 10 13 1009.8 - -
28/07:30pm 28.3 30.4 23.7 76 3.2 NNW 19 24 10 13 1009.6 - -
28/07:00pm 28.4 30.6 23.3 74 3.5 NNW 17 22 9 12 1009.2 - -
28/06:30pm 28.6 30.7 23.1 72 3.8 NNW 17 22 9 12 1008.8 - -
28/06:00pm 29.8 31.9 23.7 70 4.2 NNW 19 24 10 13 1008.7 1008.6 -
28/05:30pm 30.4 32.5 23.8 68 4.6 NNW 19 22 10 12 1008.5 - -
28/05:00pm 31.4 33.8 24.3 66 5.0 NNW 19 24 10 13 1008.4 - -
28/04:30pm 31.5 34.7 23.1 61 5.8 NW 11 15 6 8 1008.2 - -
28/04:00pm 31.5 34.6 24.1 65 5.2 W 15 20 8 11 1008.2 - -
28/03:30pm 31.8 33.9 23.1 60 6.0 SW 17 24 9 13 1008.2 - -
28/03:00pm 32.6 35.1 23.8 59 6.1 SW 17 26 9 14 1008.6 1008.5 -
28/02:30pm 32.5 34.9 23.7 59 6.1 SSW 17 35 9 19 1008.9 - -
28/02:00pm 32.0 33.9 23.5 60 5.9 SW 19 28 10 15 1009.3 - -
28/01:30pm 31.4 34.0 24.0 65 5.1 SW 17 28 9 15 1009.7 - -
28/01:00pm 29.9 32.1 23.3 67 4.5 WSW 17 22 9 12 1010.1 - -
28/12:30pm 29.8 32.6 23.0 67 4.7 WSW 13 19 7 10 1010.7 - -
28/12:00pm 29.8 32.5 22.8 66 4.8 W 13 19 7 10 1011.4 1011.3 -
28/11:30am 29.7 32.6 22.4 65 5.0 WNW 11 15 6 8 1011.6 - -
28/11:00am 30.3 33.9 23.0 65 5.0 WNW 9 13 5 7 1011.7 - -
28/10:30am 30.0 32.5 22.4 63 5.2 WNW 13 15 7 8 1011.9 - -
28/10:00am 30.3 33.5 23.0 65 5.0 NW 11 15 6 8 1012.0 - -
28/09:30am 30.0 33.6 22.4 63 5.2 N 7 11 4 6 1012.2 - -
28/09:00am 29.5 33.2 22.5 66 4.8 NNW 7 9 4 5 1012.4 1012.3 -
28/08:30am 29.7 33.5 22.7 66 4.8 NE 7 15 4 8 1012.5 - -
28/08:00am 28.9 32.4 22.9 70 4.1 NE 9 11 5 6 1012.2 - -
28/07:30am 27.2 31.4 23.4 80 2.6 ENE 7 13 4 7 1011.7 - -
28/07:00am 25.1 28.8 23.2 89 1.3 NE 9 15 5 8 1011.5 - -
28/06:30am 23.8 26.9 22.1 90 1.1 ENE 9 13 5 7 1011.4 - -
28/06:00am 23.2 26.0 20.9 87 1.5 E 7 11 4 6 1011.3 1011.2 -
28/05:30am 23.6 26.3 21.3 87 1.5 E 9 11 5 6 1011.3 - -
28/05:00am 23.8 26.8 21.3 86 1.6 E 7 11 4 6 1011.1 - -
28/04:30am 23.5 26.0 21.0 86 1.6 ESE 9 11 5 6 1010.9 - -
28/04:00am 23.4 25.9 20.3 83 2.0 ESE 7 9 4 5 1010.7 - -
28/03:30am 24.2 26.7 19.9 77 2.8 ENE 6 7 3 4 1010.6 - -
28/03:00am 26.4 29.2 21.6 75 3.2 N 9 13 5 7 1010.4 1010.3 -
28/02:30am 26.7 29.8 22.1 76 3.1 N 9 15 5 8 1010.5 - -
28/02:00am 26.8 29.3 21.8 74 3.3 NNW 11 15 6 8 1010.5 - -
28/01:30am 27.0 29.6 22.0 74 3.4 NNW 11 13 6 7 1010.8 - -
28/01:00am 26.8 29.7 21.8 74 3.3 N 9 13 5 7 1011.2 - -
28/12:30am 27.0 29.9 21.7 73 3.5 N 9 13 5 7 1011.5 - -
28/12:00am 27.1 29.4 21.4 71 3.8 N 11 15 6 8 1011.7 1011.6 -
 
Date/Time
CST
Temp
°C
App
Temp
°C
Dew
Point
Rel
Hum
%
Delta-T
°C
Wind Press
QNH
hPa
Press
MSL
hPa
Rain
since 9 am
mm
Dir
 
Spd
km/h
Gust
km/h
Spd
kts
Gust
kts
27/11:30pm 27.2 29.2 21.5 71 3.8 N 13 17 7 9 1011.9 - -

Other Formats:

Comma delimited format used in spreadsheet applications
http://www.bom.gov.au/fwo/IDD60801/IDD60801.94122.axf

JavaScript Object Notation format (JSON) in row-major order
http://www.bom.gov.au/fwo/IDD60801/IDD60801.94122.json